SWA2215 KMDW-KBHM
Flight info
| Callsign | SWA2215 |
|---|---|
| Flight time | 1h 29m |
| Altitude | 36000 |
| Route | CMSKY CARYN CYBIL PXV BNA RQZ NULLS |
| Aircraft | B738/M-SADE2E3GIJ4RWZ/LB1D1 |
Departure
| Time | 2026-04-26 11:19 |
|---|---|
| Airport | Chicago Midway International Airport (KMDW) |
Arrival
| Time | 2026-04-26 12:49 |
|---|---|
| Airport | Birmingham-Shuttlesworth International Airport (KBHM) |
| Time | Latitude | Longitude | Altitude | Speed | Heading |
|---|---|---|---|---|---|
| 2026-04-26 11:00 | 41.78732 | -87.74391 | 628 ft | 0 kts | 316° |
| 2026-04-26 11:09 | 41.78731 | -87.74390 | 628 ft | 2 kts | 316° |
| 2026-04-26 11:09 | 41.78719 | -87.74375 | 628 ft | 2 kts | 316° |
| 2026-04-26 11:10 | 41.78707 | -87.74360 | 628 ft | 2 kts | 316° |
| 2026-04-26 11:10 | 41.78697 | -87.74344 | 628 ft | 2 kts | 300° |
| 2026-04-26 11:10 | 41.78694 | -87.74324 | 628 ft | 1 kts | 234° |
| 2026-04-26 11:10 | 41.78700 | -87.74317 | 628 ft | 1 kts | 213° |
| 2026-04-26 11:11 | 41.78701 | -87.74315 | 628 ft | 0 kts | 213° |
| 2026-04-26 11:13 | 41.78701 | -87.74316 | 628 ft | 1 kts | 213° |
| 2026-04-26 11:14 | 41.78679 | -87.74347 | 628 ft | 8 kts | 233° |
| 2026-04-26 11:14 | 41.78629 | -87.74433 | 628 ft | 14 kts | 226° |
| 2026-04-26 11:14 | 41.78550 | -87.74528 | 628 ft | 16 kts | 221° |
| 2026-04-26 11:14 | 41.78509 | -87.74639 | 628 ft | 15 kts | 301° |
| 2026-04-26 11:15 | 41.78577 | -87.74740 | 628 ft | 14 kts | 314° |
| 2026-04-26 11:15 | 41.78629 | -87.74805 | 628 ft | 7 kts | 247° |
| 2026-04-26 11:15 | 41.78587 | -87.74873 | 628 ft | 13 kts | 225° |
| 2026-04-26 11:15 | 41.78506 | -87.74976 | 628 ft | 17 kts | 223° |
| 2026-04-26 11:16 | 41.78424 | -87.75084 | 628 ft | 16 kts | 225° |
| 2026-04-26 11:16 | 41.78346 | -87.75185 | 628 ft | 15 kts | 225° |
| 2026-04-26 11:16 | 41.78275 | -87.75283 | 628 ft | 14 kts | 226° |
| 2026-04-26 11:16 | 41.78209 | -87.75374 | 628 ft | 13 kts | 224° |
| 2026-04-26 11:17 | 41.78144 | -87.75457 | 628 ft | 13 kts | 220° |
| 2026-04-26 11:17 | 41.78077 | -87.75531 | 628 ft | 12 kts | 219° |
| 2026-04-26 11:17 | 41.78016 | -87.75605 | 628 ft | 12 kts | 224° |
| 2026-04-26 11:17 | 41.77959 | -87.75680 | 628 ft | 11 kts | 225° |
| 2026-04-26 11:18 | 41.77921 | -87.75765 | 628 ft | 11 kts | 266° |
| 2026-04-26 11:18 | 41.77918 | -87.75863 | 628 ft | 10 kts | 269° |
| 2026-04-26 11:18 | 41.77958 | -87.75884 | 628 ft | 7 kts | 62° |
| 2026-04-26 11:18 | 41.77962 | -87.75878 | 628 ft | 3 kts | 46° |
| 2026-04-26 11:19 | 41.78166 | -87.75614 | 628 ft | 79 kts | 44° |
| 2026-04-26 11:19 | 41.78735 | -87.74894 | 629 ft | 143 kts | 44° |
| 2026-04-26 11:19 | 41.79536 | -87.73883 | 1051 ft | 165 kts | 44° |
| 2026-04-26 11:19 | 41.80415 | -87.72845 | 1846 ft | 172 kts | 42° |
| 2026-04-26 11:20 | 41.81354 | -87.71771 | 2525 ft | 181 kts | 42° |
| 2026-04-26 11:20 | 41.81992 | -87.71093 | 2818 ft | 190 kts | 41° |
| 2026-04-26 11:20 | 41.83481 | -87.69839 | 3751 ft | 187 kts | 33° |
| 2026-04-26 11:20 | 41.84579 | -87.68857 | 4271 ft | 196 kts | 43° |
| 2026-04-26 11:21 | 41.85685 | -87.67621 | 4548 ft | 215 kts | 45° |
| 2026-04-26 11:21 | 41.86586 | -87.66007 | 4980 ft | 220 kts | 71° |
| 2026-04-26 11:21 | 41.86738 | -87.63985 | 5597 ft | 220 kts | 101° |
| 2026-04-26 11:21 | 41.86086 | -87.62152 | 6298 ft | 222 kts | 130° |
| 2026-04-26 11:22 | 41.84860 | -87.61008 | 6898 ft | 230 kts | 158° |
| 2026-04-26 11:22 | 41.83271 | -87.60778 | 7553 ft | 239 kts | 185° |
| 2026-04-26 11:22 | 41.81696 | -87.61466 | 8233 ft | 246 kts | 203° |
| 2026-04-26 11:22 | 41.80146 | -87.62486 | 8943 ft | 249 kts | 202° |
| 2026-04-26 11:23 | 41.78620 | -87.63477 | 9669 ft | 250 kts | 203° |
| 2026-04-26 11:23 | 41.77055 | -87.64493 | 10457 ft | 250 kts | 204° |
| 2026-04-26 11:23 | 41.75471 | -87.65523 | 11111 ft | 256 kts | 204° |
| 2026-04-26 11:23 | 41.73831 | -87.66589 | 11641 ft | 268 kts | 205° |
| 2026-04-26 11:24 | 41.72108 | -87.67709 | 12053 ft | 284 kts | 205° |
| 2026-04-26 11:24 | 41.70289 | -87.68897 | 12399 ft | 303 kts | 206° |
| 2026-04-26 11:24 | 41.68322 | -87.70196 | 12707 ft | 322 kts | 206° |
| 2026-04-26 11:24 | 41.66250 | -87.71556 | 12989 ft | 341 kts | 206° |
| 2026-04-26 11:25 | 41.64101 | -87.72958 | 13483 ft | 351 kts | 206° |
| 2026-04-26 11:25 | 41.61896 | -87.74391 | 14219 ft | 354 kts | 206° |
| 2026-04-26 11:25 | 41.59677 | -87.75830 | 14983 ft | 357 kts | 206° |
| 2026-04-26 11:25 | 41.57421 | -87.77291 | 15744 ft | 360 kts | 206° |
| 2026-04-26 11:26 | 41.55163 | -87.78751 | 16473 ft | 362 kts | 206° |
| 2026-04-26 11:26 | 41.52881 | -87.80226 | 17180 ft | 365 kts | 206° |
| 2026-04-26 11:26 | 41.50583 | -87.81710 | 17856 ft | 368 kts | 206° |
| 2026-04-26 11:26 | 41.48260 | -87.83210 | 18526 ft | 372 kts | 206° |
| 2026-04-26 11:27 | 41.45916 | -87.84722 | 19074 ft | 378 kts | 206° |
| 2026-04-26 11:27 | 41.43522 | -87.86188 | 19653 ft | 382 kts | 202° |
| 2026-04-26 11:27 | 41.40968 | -87.87263 | 20222 ft | 387 kts | 194° |
| 2026-04-26 11:27 | 41.38298 | -87.87928 | 20780 ft | 392 kts | 189° |
| 2026-04-26 11:28 | 41.35568 | -87.88332 | 21299 ft | 397 kts | 186° |
| 2026-04-26 11:28 | 41.32790 | -87.88566 | 21799 ft | 402 kts | 185° |
| 2026-04-26 11:28 | 41.30016 | -87.88815 | 22289 ft | 406 kts | 185° |
| 2026-04-26 11:28 | 41.27181 | -87.89088 | 22799 ft | 410 kts | 185° |
| 2026-04-26 11:29 | 41.24286 | -87.89329 | 23272 ft | 415 kts | 183° |
| 2026-04-26 11:29 | 41.21421 | -87.89357 | 23749 ft | 419 kts | 180° |
| 2026-04-26 11:29 | 41.18498 | -87.89254 | 24190 ft | 423 kts | 179° |
| 2026-04-26 11:29 | 41.15544 | -87.89102 | 24640 ft | 426 kts | 179° |
| 2026-04-26 11:30 | 41.12557 | -87.88969 | 25076 ft | 430 kts | 180° |
| 2026-04-26 11:30 | 41.10535 | -87.88888 | 25360 ft | 432 kts | 180° |
| 2026-04-26 11:30 | 41.06512 | -87.88741 | 25902 ft | 437 kts | 180° |
| 2026-04-26 11:30 | 41.03454 | -87.88637 | 26301 ft | 440 kts | 180° |
| 2026-04-26 11:31 | 41.00380 | -87.88535 | 26689 ft | 443 kts | 180° |
| 2026-04-26 11:31 | 40.97319 | -87.88437 | 27057 ft | 447 kts | 180° |
| 2026-04-26 11:31 | 40.94202 | -87.88338 | 27422 ft | 450 kts | 181° |
| 2026-04-26 11:31 | 40.91067 | -87.88240 | 27770 ft | 453 kts | 181° |
| 2026-04-26 11:32 | 40.87902 | -87.88140 | 28118 ft | 456 kts | 181° |
| 2026-04-26 11:32 | 40.84725 | -87.88040 | 28446 ft | 459 kts | 181° |
| 2026-04-26 11:32 | 40.81509 | -87.87939 | 28768 ft | 462 kts | 181° |
| 2026-04-26 11:32 | 40.78288 | -87.87839 | 29085 ft | 465 kts | 181° |
| 2026-04-26 11:33 | 40.75048 | -87.87738 | 29390 ft | 467 kts | 181° |
| 2026-04-26 11:33 | 40.71791 | -87.87637 | 29690 ft | 470 kts | 181° |
| 2026-04-26 11:33 | 40.68502 | -87.87534 | 29961 ft | 473 kts | 182° |
| 2026-04-26 11:33 | 40.65193 | -87.87432 | 30243 ft | 475 kts | 182° |
| 2026-04-26 11:34 | 40.61881 | -87.87329 | 30611 ft | 475 kts | 182° |
| 2026-04-26 11:34 | 40.58622 | -87.87228 | 30986 ft | 475 kts | 182° |
| 2026-04-26 11:34 | 40.55311 | -87.87125 | 31361 ft | 475 kts | 182° |
| 2026-04-26 11:34 | 40.52012 | -87.87024 | 31709 ft | 475 kts | 182° |
| 2026-04-26 11:35 | 40.48670 | -87.86921 | 32080 ft | 474 kts | 182° |
| 2026-04-26 11:35 | 40.45405 | -87.86821 | 32401 ft | 475 kts | 182° |
| 2026-04-26 11:35 | 40.42110 | -87.86719 | 32743 ft | 475 kts | 182° |
| 2026-04-26 11:35 | 40.39915 | -87.86652 | 32987 ft | 474 kts | 182° |
| 2026-04-26 11:36 | 40.35504 | -87.86517 | 33457 ft | 473 kts | 182° |
| 2026-04-26 11:36 | 40.32224 | -87.86416 | 33758 ft | 474 kts | 182° |
| 2026-04-26 11:36 | 40.28910 | -87.86292 | 34076 ft | 474 kts | 181° |
| 2026-04-26 11:36 | 40.25631 | -87.86143 | 34442 ft | 472 kts | 181° |
| 2026-04-26 11:37 | 40.23444 | -87.86042 | 34647 ft | 472 kts | 181° |
| 2026-04-26 11:37 | 40.20163 | -87.85896 | 34932 ft | 473 kts | 182° |
| 2026-04-26 11:37 | 40.16880 | -87.85751 | 35258 ft | 472 kts | 182° |
| 2026-04-26 11:37 | 40.13591 | -87.85606 | 35556 ft | 472 kts | 182° |
| 2026-04-26 11:38 | 40.10320 | -87.85463 | 35868 ft | 471 kts | 182° |
| 2026-04-26 11:38 | 40.07032 | -87.85318 | 36052 ft | 473 kts | 182° |
| 2026-04-26 11:38 | 40.00438 | -87.85030 | 36082 ft | 475 kts | 182° |
| 2026-04-26 11:39 | 39.93843 | -87.84740 | 36077 ft | 471 kts | 182° |
| 2026-04-26 11:39 | 39.87308 | -87.84454 | 36074 ft | 470 kts | 182° |
| 2026-04-26 11:40 | 39.80803 | -87.84170 | 36072 ft | 471 kts | 182° |
| 2026-04-26 11:40 | 39.74215 | -87.83883 | 36071 ft | 471 kts | 182° |
| 2026-04-26 11:42 | 39.48055 | -87.82751 | 36065 ft | 471 kts | 182° |
| 2026-04-26 11:43 | 39.41544 | -87.82470 | 36062 ft | 471 kts | 182° |
| 2026-04-26 11:43 | 39.34994 | -87.82188 | 36060 ft | 471 kts | 182° |
| 2026-04-26 11:44 | 39.28430 | -87.81907 | 36060 ft | 471 kts | 182° |
| 2026-04-26 11:44 | 39.21877 | -87.81626 | 36060 ft | 471 kts | 182° |
| 2026-04-26 11:45 | 39.15300 | -87.81344 | 36059 ft | 472 kts | 182° |
| 2026-04-26 11:45 | 39.08735 | -87.81064 | 36060 ft | 472 kts | 182° |
| 2026-04-26 11:46 | 39.02175 | -87.80785 | 36060 ft | 472 kts | 183° |
| 2026-04-26 11:46 | 38.95606 | -87.80506 | 36058 ft | 472 kts | 183° |
| 2026-04-26 11:47 | 38.89063 | -87.80228 | 36057 ft | 473 kts | 183° |
| 2026-04-26 11:47 | 38.82492 | -87.79950 | 36056 ft | 472 kts | 183° |
| 2026-04-26 11:48 | 38.75912 | -87.79671 | 36058 ft | 473 kts | 183° |
| 2026-04-26 11:48 | 38.69317 | -87.79393 | 36057 ft | 473 kts | 183° |
| 2026-04-26 11:49 | 38.62731 | -87.79116 | 36059 ft | 474 kts | 183° |
| 2026-04-26 11:49 | 38.56128 | -87.78838 | 36059 ft | 474 kts | 184° |
| 2026-04-26 11:50 | 38.49535 | -87.78561 | 36059 ft | 475 kts | 184° |
| 2026-04-26 11:50 | 38.42969 | -87.78286 | 36056 ft | 475 kts | 184° |
| 2026-04-26 11:51 | 38.36362 | -87.78010 | 36053 ft | 475 kts | 184° |
| 2026-04-26 11:51 | 38.29771 | -87.77735 | 36049 ft | 475 kts | 184° |
| 2026-04-26 11:52 | 38.23155 | -87.77458 | 36044 ft | 475 kts | 184° |
| 2026-04-26 11:52 | 38.16545 | -87.77183 | 36039 ft | 475 kts | 184° |
| 2026-04-26 11:53 | 38.09935 | -87.76909 | 36035 ft | 475 kts | 184° |
| 2026-04-26 11:54 | 38.00054 | -87.76499 | 36031 ft | 475 kts | 184° |
| 2026-04-26 11:54 | 37.93429 | -87.75658 | 36030 ft | 484 kts | 173° |
| 2026-04-26 11:55 | 37.87020 | -87.72852 | 36031 ft | 492 kts | 160° |
| 2026-04-26 11:55 | 37.80869 | -87.69002 | 36029 ft | 493 kts | 157° |
| 2026-04-26 11:56 | 37.74710 | -87.65143 | 36030 ft | 494 kts | 158° |
| 2026-04-26 11:56 | 37.68531 | -87.61333 | 36030 ft | 494 kts | 158° |
| 2026-04-26 11:57 | 37.62332 | -87.57538 | 36030 ft | 494 kts | 158° |
| 2026-04-26 11:57 | 37.56169 | -87.53740 | 36030 ft | 495 kts | 159° |
| 2026-04-26 11:58 | 37.49981 | -87.49951 | 36029 ft | 495 kts | 159° |
| 2026-04-26 11:58 | 37.43773 | -87.46165 | 36030 ft | 496 kts | 159° |
| 2026-04-26 11:59 | 37.37595 | -87.42408 | 36030 ft | 496 kts | 159° |
| 2026-04-26 11:59 | 37.31337 | -87.38611 | 36035 ft | 496 kts | 159° |
| 2026-04-26 12:00 | 37.25160 | -87.34869 | 36039 ft | 497 kts | 159° |
| 2026-04-26 12:00 | 37.18914 | -87.31093 | 36037 ft | 497 kts | 159° |
| 2026-04-26 12:01 | 37.12670 | -87.27326 | 36035 ft | 498 kts | 159° |
| 2026-04-26 12:01 | 37.06432 | -87.23568 | 36033 ft | 499 kts | 160° |
| 2026-04-26 12:02 | 37.00161 | -87.19798 | 36028 ft | 499 kts | 160° |
| 2026-04-26 12:02 | 36.93874 | -87.16025 | 36023 ft | 500 kts | 160° |
| 2026-04-26 12:03 | 36.87641 | -87.12292 | 36019 ft | 501 kts | 160° |
| 2026-04-26 12:03 | 36.81352 | -87.08531 | 36013 ft | 501 kts | 160° |
| 2026-04-26 12:04 | 36.75052 | -87.04771 | 36009 ft | 501 kts | 160° |
| 2026-04-26 12:04 | 36.68755 | -87.01019 | 36006 ft | 502 kts | 160° |
| 2026-04-26 12:05 | 36.62447 | -86.97268 | 36002 ft | 502 kts | 160° |
| 2026-04-26 12:05 | 36.56135 | -86.93520 | 36000 ft | 503 kts | 160° |
| 2026-04-26 12:06 | 36.49842 | -86.89791 | 36000 ft | 504 kts | 160° |
| 2026-04-26 12:06 | 36.43515 | -86.86049 | 35999 ft | 504 kts | 160° |
| 2026-04-26 12:07 | 36.37173 | -86.82283 | 35997 ft | 505 kts | 161° |
| 2026-04-26 12:07 | 36.30817 | -86.78541 | 35999 ft | 505 kts | 161° |
| 2026-04-26 12:08 | 36.24462 | -86.74809 | 35998 ft | 507 kts | 161° |
| 2026-04-26 12:08 | 36.18068 | -86.71088 | 36000 ft | 505 kts | 163° |
| 2026-04-26 12:09 | 36.11481 | -86.68639 | 36006 ft | 491 kts | 178° |
| 2026-04-26 12:09 | 36.04708 | -86.67981 | 36011 ft | 488 kts | 187° |
| 2026-04-26 12:10 | 35.97910 | -86.67822 | 36009 ft | 489 kts | 187° |
| 2026-04-26 12:10 | 35.91130 | -86.67609 | 36003 ft | 488 kts | 187° |
| 2026-04-26 12:11 | 35.84338 | -86.67361 | 36002 ft | 486 kts | 188° |
| 2026-04-26 12:11 | 35.77594 | -86.67112 | 36001 ft | 486 kts | 187° |
| 2026-04-26 12:12 | 35.70802 | -86.66855 | 35994 ft | 489 kts | 187° |
| 2026-04-26 12:12 | 35.63996 | -86.66591 | 35987 ft | 486 kts | 187° |
| 2026-04-26 12:13 | 35.57294 | -86.66334 | 35987 ft | 484 kts | 188° |
| 2026-04-26 12:13 | 35.50564 | -86.66077 | 35986 ft | 484 kts | 188° |
| 2026-04-26 12:14 | 35.43817 | -86.65820 | 35988 ft | 484 kts | 188° |
| 2026-04-26 12:14 | 35.37095 | -86.65565 | 35988 ft | 484 kts | 188° |
| 2026-04-26 12:15 | 35.30359 | -86.65310 | 35509 ft | 481 kts | 188° |
| 2026-04-26 12:15 | 35.27018 | -86.65183 | 34839 ft | 481 kts | 187° |
| 2026-04-26 12:15 | 35.23658 | -86.65056 | 34130 ft | 482 kts | 187° |
| 2026-04-26 12:15 | 35.20300 | -86.64929 | 33413 ft | 482 kts | 187° |
| 2026-04-26 12:16 | 35.16951 | -86.64803 | 32688 ft | 483 kts | 187° |
| 2026-04-26 12:16 | 35.13620 | -86.64678 | 31966 ft | 484 kts | 186° |
| 2026-04-26 12:16 | 35.10214 | -86.64550 | 31404 ft | 481 kts | 186° |
| 2026-04-26 12:16 | 35.06927 | -86.64430 | 30862 ft | 477 kts | 186° |
| 2026-04-26 12:17 | 35.03612 | -86.64296 | 30319 ft | 474 kts | 186° |
| 2026-04-26 12:17 | 35.00329 | -86.64183 | 29789 ft | 471 kts | 186° |
| 2026-04-26 12:17 | 34.97052 | -86.64052 | 29266 ft | 468 kts | 185° |
| 2026-04-26 12:17 | 34.93824 | -86.63928 | 28752 ft | 465 kts | 185° |
| 2026-04-26 12:18 | 34.90594 | -86.63812 | 28234 ft | 461 kts | 185° |
| 2026-04-26 12:18 | 34.87402 | -86.63692 | 27720 ft | 457 kts | 184° |
| 2026-04-26 12:18 | 34.84218 | -86.63581 | 27206 ft | 453 kts | 186° |
| 2026-04-26 12:18 | 34.81152 | -86.63757 | 26705 ft | 444 kts | 192° |
| 2026-04-26 12:19 | 34.78150 | -86.64364 | 26197 ft | 434 kts | 199° |
| 2026-04-26 12:19 | 34.75250 | -86.65317 | 25673 ft | 428 kts | 202° |
| 2026-04-26 12:19 | 34.72407 | -86.66386 | 25154 ft | 423 kts | 204° |
| 2026-04-26 12:19 | 34.69621 | -86.67495 | 24648 ft | 420 kts | 203° |
| 2026-04-26 12:20 | 34.66868 | -86.68598 | 24145 ft | 416 kts | 203° |
| 2026-04-26 12:20 | 34.64137 | -86.69694 | 23646 ft | 412 kts | 203° |
| 2026-04-26 12:20 | 34.61416 | -86.70786 | 23148 ft | 409 kts | 203° |
| 2026-04-26 12:20 | 34.58730 | -86.71866 | 22654 ft | 405 kts | 203° |
| 2026-04-26 12:21 | 34.56068 | -86.72935 | 22162 ft | 402 kts | 203° |
| 2026-04-26 12:21 | 34.53428 | -86.73996 | 21673 ft | 399 kts | 203° |
| 2026-04-26 12:21 | 34.50821 | -86.75044 | 21186 ft | 396 kts | 203° |
| 2026-04-26 12:21 | 34.48217 | -86.76090 | 20698 ft | 393 kts | 203° |
| 2026-04-26 12:22 | 34.45595 | -86.77150 | 20204 ft | 390 kts | 203° |
| 2026-04-26 12:22 | 34.43059 | -86.78175 | 19725 ft | 388 kts | 203° |
| 2026-04-26 12:22 | 34.40515 | -86.79200 | 19245 ft | 385 kts | 203° |
| 2026-04-26 12:22 | 34.37967 | -86.80225 | 18765 ft | 382 kts | 203° |
| 2026-04-26 12:23 | 34.35445 | -86.81238 | 18291 ft | 380 kts | 202° |
| 2026-04-26 12:23 | 34.33796 | -86.81906 | 17977 ft | 379 kts | 202° |
| 2026-04-26 12:23 | 34.31299 | -86.82912 | 17502 ft | 376 kts | 202° |
| 2026-04-26 12:23 | 34.28821 | -86.83906 | 17034 ft | 374 kts | 202° |
| 2026-04-26 12:24 | 34.26357 | -86.84892 | 16566 ft | 372 kts | 202° |
| 2026-04-26 12:24 | 34.23892 | -86.85877 | 16099 ft | 370 kts | 202° |
| 2026-04-26 12:24 | 34.21460 | -86.86847 | 15633 ft | 368 kts | 202° |
| 2026-04-26 12:25 | 34.16601 | -86.88785 | 14700 ft | 365 kts | 202° |
| 2026-04-26 12:25 | 34.14204 | -86.89739 | 14247 ft | 363 kts | 202° |
| 2026-04-26 12:25 | 34.11801 | -86.90697 | 13792 ft | 362 kts | 201° |
| 2026-04-26 12:25 | 34.09419 | -86.91644 | 13393 ft | 358 kts | 201° |
| 2026-04-26 12:26 | 34.07155 | -86.92544 | 13298 ft | 332 kts | 201° |
| 2026-04-26 12:26 | 34.04990 | -86.93268 | 13223 ft | 320 kts | 193° |
| 2026-04-26 12:26 | 34.02783 | -86.93460 | 13033 ft | 317 kts | 182° |
| 2026-04-26 12:26 | 34.00552 | -86.93372 | 12680 ft | 324 kts | 180° |
| 2026-04-26 12:27 | 33.98294 | -86.93190 | 12315 ft | 330 kts | 178° |
| 2026-04-26 12:27 | 33.95975 | -86.92960 | 11937 ft | 335 kts | 178° |
| 2026-04-26 12:27 | 33.93661 | -86.92723 | 11564 ft | 337 kts | 177° |
| 2026-04-26 12:27 | 33.91325 | -86.92483 | 11191 ft | 335 kts | 177° |
| 2026-04-26 12:28 | 33.88991 | -86.92244 | 10822 ft | 334 kts | 177° |
| 2026-04-26 12:28 | 33.86692 | -86.92007 | 10460 ft | 332 kts | 176° |
| 2026-04-26 12:28 | 33.84392 | -86.91771 | 10166 ft | 328 kts | 176° |
| 2026-04-26 12:28 | 33.82152 | -86.91540 | 10081 ft | 317 kts | 176° |
| 2026-04-26 12:29 | 33.79990 | -86.91318 | 10017 ft | 306 kts | 176° |
| 2026-04-26 12:29 | 33.77912 | -86.91104 | 10004 ft | 295 kts | 176° |
| 2026-04-26 12:29 | 33.73955 | -86.90697 | 9998 ft | 274 kts | 177° |
| 2026-04-26 12:30 | 33.72093 | -86.90506 | 9992 ft | 263 kts | 177° |
| 2026-04-26 12:30 | 33.70299 | -86.90320 | 9995 ft | 256 kts | 176° |
| 2026-04-26 12:30 | 33.68641 | -86.89661 | 9945 ft | 256 kts | 145° |
| 2026-04-26 12:31 | 33.67213 | -86.85938 | 9830 ft | 254 kts | 93° |
| 2026-04-26 12:31 | 33.67201 | -86.83804 | 9375 ft | 266 kts | 86° |
| 2026-04-26 12:31 | 33.67407 | -86.81524 | 8759 ft | 278 kts | 76° |
| 2026-04-26 12:31 | 33.67904 | -86.79294 | 8389 ft | 280 kts | 72° |
| 2026-04-26 12:32 | 33.68481 | -86.77041 | 7952 ft | 283 kts | 71° |
| 2026-04-26 12:32 | 33.69067 | -86.74766 | 7504 ft | 287 kts | 71° |
| 2026-04-26 12:32 | 33.70209 | -86.70343 | 7013 ft | 272 kts | 71° |
| 2026-04-26 12:33 | 33.70768 | -86.68158 | 6642 ft | 274 kts | 71° |
| 2026-04-26 12:33 | 33.71332 | -86.65966 | 6268 ft | 276 kts | 71° |
| 2026-04-26 12:33 | 33.71901 | -86.63759 | 5893 ft | 277 kts | 71° |
| 2026-04-26 12:33 | 33.72474 | -86.61542 | 5519 ft | 278 kts | 71° |
| 2026-04-26 12:34 | 33.73035 | -86.59372 | 5136 ft | 266 kts | 71° |
| 2026-04-26 12:34 | 33.73585 | -86.57282 | 4756 ft | 256 kts | 71° |
| 2026-04-26 12:34 | 33.74108 | -86.55297 | 4385 ft | 250 kts | 71° |
| 2026-04-26 12:34 | 33.74633 | -86.53323 | 4100 ft | 243 kts | 71° |
| 2026-04-26 12:35 | 33.75146 | -86.51405 | 4019 ft | 241 kts | 71° |
| 2026-04-26 12:35 | 33.75663 | -86.49471 | 4004 ft | 245 kts | 71° |
| 2026-04-26 12:35 | 33.75942 | -86.47463 | 3975 ft | 247 kts | 93° |
| 2026-04-26 12:35 | 33.75377 | -86.45523 | 3981 ft | 251 kts | 123° |
| 2026-04-26 12:36 | 33.74043 | -86.44138 | 3993 ft | 255 kts | 153° |
| 2026-04-26 12:36 | 33.72326 | -86.43708 | 3993 ft | 255 kts | 182° |
| 2026-04-26 12:36 | 33.70616 | -86.44200 | 4015 ft | 248 kts | 199° |
| 2026-04-26 12:36 | 33.69163 | -86.45207 | 3968 ft | 238 kts | 225° |
| 2026-04-26 12:37 | 33.68370 | -86.46862 | 3957 ft | 227 kts | 257° |
| 2026-04-26 12:37 | 33.68264 | -86.48703 | 4024 ft | 215 kts | 272° |
| 2026-04-26 12:37 | 33.68329 | -86.50443 | 4024 ft | 208 kts | 274° |
| 2026-04-26 12:37 | 33.68413 | -86.52152 | 3998 ft | 202 kts | 275° |
| 2026-04-26 12:38 | 33.68491 | -86.53827 | 3990 ft | 197 kts | 274° |
| 2026-04-26 12:38 | 33.68155 | -86.55367 | 3978 ft | 195 kts | 240° |
| 2026-04-26 12:38 | 33.67356 | -86.56693 | 4007 ft | 198 kts | 234° |
| 2026-04-26 12:38 | 33.66534 | -86.58018 | 3835 ft | 199 kts | 236° |
| 2026-04-26 12:39 | 33.65722 | -86.59380 | 3570 ft | 200 kts | 236° |
| 2026-04-26 12:39 | 33.64921 | -86.60753 | 3299 ft | 198 kts | 236° |
| 2026-04-26 12:39 | 33.64147 | -86.62092 | 3039 ft | 196 kts | 236° |
| 2026-04-26 12:39 | 33.63380 | -86.63424 | 2774 ft | 186 kts | 236° |
| 2026-04-26 12:40 | 33.63277 | -86.63603 | 2739 ft | 185 kts | 236° |
| 2026-04-26 12:46 | 33.62582 | -86.64811 | 2505 ft | 175 kts | 236° |
| 2026-04-26 12:47 | 33.61913 | -86.65975 | 2290 ft | 163 kts | 236° |
| 2026-04-26 12:47 | 33.61301 | -86.67039 | 2098 ft | 156 kts | 236° |
| 2026-04-26 12:47 | 33.60687 | -86.68105 | 1875 ft | 153 kts | 235° |
| 2026-04-26 12:47 | 33.60082 | -86.69158 | 1675 ft | 154 kts | 235° |
| 2026-04-26 12:48 | 33.59473 | -86.70216 | 1471 ft | 154 kts | 235° |
| 2026-04-26 12:48 | 33.58867 | -86.71271 | 1268 ft | 152 kts | 235° |
| 2026-04-26 12:48 | 33.58266 | -86.72328 | 1070 ft | 154 kts | 236° |
| 2026-04-26 12:48 | 33.57663 | -86.73391 | 884 ft | 154 kts | 234° |
| 2026-04-26 12:49 | 33.57047 | -86.74447 | 665 ft | 151 kts | 234° |
| 2026-04-26 12:49 | 33.56510 | -86.75371 | 659 ft | 115 kts | 229° |
| 2026-04-26 12:49 | 33.56264 | -86.75782 | 658 ft | 12 kts | 215° |
| 2026-04-26 12:49 | 33.56208 | -86.75829 | 658 ft | 14 kts | 215° |
| 2026-04-26 12:50 | 33.56120 | -86.75883 | 658 ft | 10 kts | 190° |